createdAt,value
2016-10-09T00:00:24.824Z,79.35
2016-10-09T00:01:24.792Z,79.54
2016-10-09T00:02:24.768Z,79.16
2016-10-09T00:03:24.736Z,79.73
2016-10-09T00:04:24.707Z,79.83
2016-10-09T00:05:24.676Z,79.73
2016-10-09T00:06:24.649Z,79.68
2016-10-09T00:07:24.622Z,79.73
2016-10-09T00:08:24.593Z,79.77
2016-10-09T00:09:24.563Z,79.86
2016-10-09T00:10:24.529Z,79.68
2016-10-09T00:11:24.505Z,79.58
2016-10-09T00:12:24.475Z,79.77
2016-10-09T00:13:24.446Z,79.77
2016-10-09T00:14:24.409Z,79.68
2016-10-09T00:15:24.381Z,79.68
2016-10-09T00:16:24.358Z,79.68
2016-10-09T00:17:24.324Z,79.68
2016-10-09T00:18:24.294Z,79.49
2016-10-09T00:19:24.265Z,79.68
2016-10-09T00:20:24.238Z,79.39
2016-10-09T00:21:24.207Z,79.39
2016-10-09T00:22:24.183Z,79.77
2016-10-09T00:23:24.145Z,80.15
2016-10-09T00:24:24.122Z,80.05
2016-10-09T00:25:24.094Z,79.86
2016-10-09T00:26:24.063Z,79.68
2016-10-09T00:27:24.031Z,79.96
2016-10-09T00:28:24.002Z,79.86
2016-10-09T00:29:23.978Z,80.05
2016-10-09T00:30:23.948Z,80.34
2016-10-09T00:31:23.919Z,80.15
2016-10-09T00:32:23.890Z,79.96
2016-10-09T00:33:23.867Z,79.77
2016-10-09T00:34:23.832Z,79.68
2016-10-09T00:35:23.805Z,79.77
2016-10-09T00:36:23.772Z,79.77
2016-10-09T00:37:23.791Z,79.86
2016-10-09T00:38:23.715Z,79.77
2016-10-09T00:39:23.685Z,79.77
2016-10-09T00:40:23.655Z,79.68
2016-10-09T00:41:23.631Z,79.86
2016-10-09T00:42:23.603Z,79.77
2016-10-09T00:43:23.572Z,79.86
2016-10-09T00:44:23.540Z,79.77
2016-10-09T00:45:23.513Z,79.68
2016-10-09T00:46:23.481Z,79.96
2016-10-09T00:47:23.454Z,79.86
2016-10-09T00:48:23.422Z,79.68
2016-10-09T00:49:23.408Z,79.68
2016-10-09T00:50:23.366Z,80.05
2016-10-09T00:51:23.339Z,79.86
2016-10-09T00:52:23.311Z,79.86
2016-10-09T00:53:23.281Z,80.05
2016-10-09T00:54:23.505Z,79.86
2016-10-09T00:55:23.220Z,80.24
2016-10-09T00:56:23.191Z,79.86
2016-10-09T00:57:23.161Z,80.24
2016-10-09T00:58:23.137Z,79.86
2016-10-09T00:59:23.103Z,80.15
2016-10-09T01:00:23.082Z,80.05
2016-10-09T01:01:23.051Z,80.05
2016-10-09T01:02:23.016Z,79.68
2016-10-09T01:03:22.987Z,79.68
2016-10-09T01:04:22.964Z,79.77
2016-10-09T01:05:22.938Z,79.77
2016-10-09T01:06:22.906Z,79.96
2016-10-09T01:07:22.871Z,79.68
2016-10-09T01:08:22.845Z,79.77
2016-10-09T01:09:22.819Z,79.77
2016-10-09T01:10:22.790Z,79.77
2016-10-09T01:11:22.756Z,79.77
2016-10-09T01:12:22.728Z,79.86
2016-10-09T01:13:22.697Z,79.68
2016-10-09T01:14:22.676Z,79.86
2016-10-09T01:15:22.646Z,79.96
2016-10-09T01:16:22.611Z,79.86
2016-10-09T01:17:22.585Z,79.68
2016-10-09T01:18:22.561Z,79.68
2016-10-09T01:19:22.525Z,79.96
2016-10-09T01:20:22.501Z,79.77
2016-10-09T01:21:22.474Z,79.86
2016-10-09T01:22:22.439Z,79.68
2016-10-09T01:23:22.414Z,79.77
2016-10-09T01:24:22.380Z,79.77
2016-10-09T01:25:22.357Z,79.96
2016-10-09T01:26:22.327Z,79.68
2016-10-09T01:27:22.295Z,79.68
2016-10-09T01:28:22.272Z,79.96
2016-10-09T01:29:22.241Z,79.77
2016-10-09T01:30:22.208Z,79.86
2016-10-09T01:31:22.178Z,79.86
2016-10-09T01:32:22.151Z,79.77
2016-10-09T01:33:22.126Z,79.77
2016-10-09T01:34:22.094Z,79.86
2016-10-09T01:35:22.068Z,79.86
2016-10-09T01:36:22.088Z,80.05
2016-10-09T01:37:22.009Z,79.86
2016-10-09T01:38:21.983Z,79.86
2016-10-09T01:39:21.950Z,79.86
2016-10-09T01:40:21.929Z,79.77
2016-10-09T01:41:21.889Z,79.68
2016-10-09T01:42:21.862Z,79.86
2016-10-09T01:43:21.832Z,79.86
2016-10-09T01:44:21.804Z,79.86
2016-10-09T01:45:21.777Z,79.86
2016-10-09T01:46:21.748Z,79.77
2016-10-09T01:47:21.720Z,80.05
2016-10-09T01:48:21.689Z,79.68
2016-10-09T01:49:21.661Z,79.96
2016-10-09T01:50:21.631Z,79.86
2016-10-09T01:51:21.604Z,79.86
2016-10-09T01:52:21.573Z,79.77
2016-10-09T01:53:21.545Z,79.86
2016-10-09T01:54:21.518Z,79.96
2016-10-09T01:55:21.486Z,79.86
2016-10-09T01:56:21.458Z,79.86
2016-10-09T01:57:21.429Z,80.34
2016-10-09T01:58:21.400Z,79.86
2016-10-09T01:59:21.371Z,80.34
2016-10-09T02:00:21.341Z,80.34
2016-10-09T02:01:21.315Z,80.34
2016-10-09T02:02:21.594Z,80.24
2016-10-09T02:03:21.554Z,80.15
2016-10-09T02:04:21.225Z,80.63
2016-10-09T02:05:21.198Z,80.34
2016-10-09T02:06:21.168Z,80.34
2016-10-09T02:07:21.139Z,80.34
2016-10-09T02:08:21.111Z,80.24
2016-10-09T02:09:21.082Z,80.15
2016-10-09T02:10:21.050Z,80.44
2016-10-09T02:11:21.024Z,80.44
2016-10-09T02:12:20.993Z,80.24
2016-10-09T02:13:20.963Z,80.34
2016-10-09T02:14:20.933Z,79.96
2016-10-09T02:15:20.912Z,80.34
2016-10-09T02:16:20.877Z,80.05
2016-10-09T02:17:20.847Z,80.34
2016-10-09T02:18:20.819Z,80.05
2016-10-09T02:19:20.792Z,80.44
2016-10-09T02:20:20.761Z,79.86
2016-10-09T02:21:20.733Z,80.34
2016-10-09T02:22:20.702Z,80.34
2016-10-09T02:23:20.677Z,80.44
2016-10-09T02:24:20.650Z,80.15
2016-10-09T02:25:20.618Z,80.24
2016-10-09T02:26:20.588Z,80.05
2016-10-09T02:27:20.559Z,80.24
2016-10-09T02:28:20.535Z,80.24
2016-10-09T02:29:20.499Z,80.44
2016-10-09T02:30:20.470Z,80.15
2016-10-09T02:31:20.442Z,80.05
2016-10-09T02:32:20.410Z,80.53
2016-10-09T02:33:20.381Z,80.44
2016-10-09T02:34:20.354Z,80.34
2016-10-09T02:35:20.323Z,80.24
2016-10-09T02:36:20.295Z,80.05
2016-10-09T02:37:20.267Z,80.34
2016-10-09T02:38:20.234Z,80.24
2016-10-09T02:39:20.207Z,80.34
2016-10-09T02:40:20.190Z,79.92
2016-10-09T02:41:20.147Z,80.05
2016-10-09T02:42:20.125Z,80.02
2016-10-09T02:43:20.093Z,80.11
2016-10-09T02:44:20.063Z,80.21
2016-10-09T02:45:20.030Z,79.83
2016-10-09T02:46:20.002Z,80.11
2016-10-09T02:47:19.972Z,80.4
2016-10-09T02:48:19.943Z,80.3
2016-10-09T02:49:20.223Z,80.3
2016-10-09T02:50:19.886Z,80.49
2016-10-09T02:51:19.857Z,80.3
2016-10-09T02:52:19.827Z,80.49
2016-10-09T02:53:19.798Z,80.96
2016-10-09T02:54:19.766Z,80.87
2016-10-09T02:55:19.740Z,80.68
2016-10-09T02:56:19.712Z,80.77
2016-10-09T02:57:19.682Z,81.06
2016-10-09T02:58:19.657Z,80.77
2016-10-09T02:59:19.621Z,80.87
2016-10-09T03:00:19.594Z,81.16
2016-10-09T03:01:19.564Z,81.06
2016-10-09T03:02:19.534Z,81.44
2016-10-09T03:03:19.503Z,81.44
2016-10-09T03:04:19.473Z,81.06
2016-10-09T03:05:19.446Z,81.06
2016-10-09T03:06:19.423Z,81.82
2016-10-09T03:07:19.393Z,81.63
2016-10-09T03:08:19.370Z,81.82
2016-10-09T03:09:19.333Z,81.54
2016-10-09T03:10:19.300Z,81.44
2016-10-09T03:11:19.281Z,81.25
2016-10-09T03:12:19.251Z,81.92
2016-10-09T03:13:19.221Z,81.54
2016-10-09T03:14:19.185Z,81.63
2016-10-09T03:15:19.158Z,82.01
2016-10-09T03:16:19.129Z,82.2
2016-10-09T03:17:19.098Z,81.54
2016-10-09T03:18:19.064Z,81.92
2016-10-09T03:19:19.040Z,81.92
2016-10-09T03:20:19.018Z,82.29
2016-10-09T03:21:18.990Z,82.2
2016-10-09T03:22:18.946Z,82.2
2016-10-09T03:23:18.919Z,82.2
2016-10-09T03:24:18.896Z,81.82
2016-10-09T03:25:18.871Z,81.82
2016-10-09T03:26:18.831Z,82.01
2016-10-09T03:27:18.812Z,81.92
2016-10-09T03:28:18.781Z,82.2
2016-10-09T03:29:18.746Z,81.92
2016-10-09T03:30:18.725Z,82.01
2016-10-09T03:31:18.700Z,81.92
2016-10-09T03:32:18.668Z,82.01
2016-10-09T03:33:18.630Z,81.82
2016-10-09T03:34:18.596Z,82.01
2016-10-09T03:35:18.572Z,82.2
2016-10-09T03:36:18.541Z,82.2
2016-10-09T03:37:18.514Z,81.73
2016-10-09T03:38:18.481Z,81.92
2016-10-09T03:39:18.758Z,82.01
2016-10-09T03:40:18.420Z,82.39
2016-10-09T03:41:18.397Z,82.01
2016-10-09T03:42:18.658Z,82.01
2016-10-09T03:43:18.334Z,82.58
2016-10-09T03:44:18.305Z,82.29
2016-10-09T03:45:18.287Z,82.68
2016-10-09T03:46:18.246Z,82.49
2016-10-09T03:47:18.217Z,82.49
2016-10-09T03:48:18.187Z,82.49
2016-10-09T03:49:18.157Z,82.29
2016-10-09T03:50:18.127Z,82.49
2016-10-09T03:51:18.099Z,82.49
2016-10-09T03:52:18.073Z,82.29
2016-10-09T03:53:18.041Z,82.29
2016-10-09T03:54:18.027Z,82.58
2016-10-09T03:55:17.983Z,82.49
2016-10-09T03:56:17.953Z,82.77
2016-10-09T03:57:17.931Z,82.43
2016-10-09T03:58:17.896Z,82.1
2016-10-09T03:59:17.867Z,82.05
2016-10-09T04:00:17.838Z,81.82
2016-10-09T04:01:17.808Z,82.1
2016-10-09T04:02:17.780Z,82.53
2016-10-09T04:03:17.752Z,82.24
2016-10-09T04:04:17.721Z,82.1
2016-10-09T04:05:17.697Z,82.1
2016-10-09T04:06:17.664Z,81.92
2016-10-09T04:07:17.633Z,82.49
2016-10-09T04:08:17.605Z,82.68
2016-10-09T04:09:17.575Z,82.68
2016-10-09T04:10:17.549Z,82.39
2016-10-09T04:11:17.516Z,82.39
2016-10-09T04:12:17.488Z,82.39
2016-10-09T04:13:17.458Z,82.34
2016-10-09T04:14:17.728Z,82.29
2016-10-09T04:15:17.403Z,82.49
2016-10-09T04:16:17.373Z,82.39
2016-10-09T04:17:17.344Z,82.71
2016-10-09T04:18:17.312Z,82.53
2016-10-09T04:19:17.287Z,82.53
2016-10-09T04:20:17.256Z,82.49
2016-10-09T04:21:17.228Z,82.49
2016-10-09T04:22:17.195Z,82.58
2016-10-09T04:23:17.168Z,82.71
2016-10-09T04:24:17.149Z,82.43
2016-10-09T04:25:17.409Z,82.49
2016-10-09T04:26:17.081Z,82.2
2016-10-09T04:27:17.051Z,82.24
2016-10-09T04:28:17.023Z,82.34
2016-10-09T04:29:16.998Z,82.53
2016-10-09T04:30:17.263Z,82.62
2016-10-09T04:31:16.936Z,82.58
2016-10-09T04:32:16.913Z,82.62
2016-10-09T04:33:16.878Z,82.62
2016-10-09T04:34:16.848Z,82.24
2016-10-09T04:35:16.823Z,82.24
2016-10-09T04:36:16.792Z,82.62
2016-10-09T04:37:16.764Z,82.71
2016-10-09T04:38:16.730Z,82.62
2016-10-09T04:39:16.704Z,82.1
2016-10-09T04:40:16.674Z,82.43
2016-10-09T04:41:16.660Z,82.53
2016-10-09T04:42:16.919Z,82.39
2016-10-09T04:43:16.587Z,82.15
2016-10-09T04:44:16.559Z,82.2
2016-10-09T04:45:16.530Z,82.2
2016-10-09T04:46:16.498Z,82.29
2016-10-09T04:47:16.472Z,82.29
2016-10-09T04:48:16.440Z,82.58
2016-10-09T04:49:16.678Z,82.39
2016-10-09T04:50:16.385Z,82.58
2016-10-09T04:51:16.352Z,82.58
2016-10-09T04:52:16.332Z,82.2
2016-10-09T04:53:16.296Z,82.58
2016-10-09T04:54:16.268Z,82.1
2016-10-09T04:55:16.236Z,81.92
2016-10-09T04:56:16.209Z,81.92
2016-10-09T04:57:16.179Z,82.01
2016-10-09T04:58:16.151Z,82.29
2016-10-09T04:59:16.122Z,82.01
2016-10-09T05:00:16.091Z,82.34
2016-10-09T05:01:16.063Z,82.2
2016-10-09T05:02:16.033Z,82.49
2016-10-09T05:03:16.320Z,82.68
2016-10-09T05:04:15.975Z,82.71
2016-10-09T05:05:15.945Z,82.53
2016-10-09T05:06:15.918Z,82.58
2016-10-09T05:07:15.887Z,82.58
2016-10-09T05:08:15.859Z,82.58
2016-10-09T05:09:15.829Z,82.62
2016-10-09T05:10:15.801Z,82.58
2016-10-09T05:11:15.770Z,82.39
2016-10-09T05:12:15.741Z,82.49
2016-10-09T05:13:15.728Z,82.49
2016-10-09T05:14:15.682Z,82.49
2016-10-09T05:15:15.653Z,82.49
2016-10-09T05:16:15.623Z,82.39
2016-10-09T05:17:15.594Z,82.58
2016-10-09T05:18:15.568Z,83.25
2016-10-09T05:19:15.543Z,83.25
2016-10-09T05:20:15.508Z,83.15
2016-10-09T05:21:15.479Z,82.96
2016-10-09T05:22:15.449Z,82.96
2016-10-09T05:23:15.420Z,82.96
2016-10-09T05:24:15.388Z,82.77
2016-10-09T05:25:15.364Z,83.44
2016-10-09T05:26:15.331Z,83.25
2016-10-09T05:27:15.305Z,83.25
2016-10-09T05:28:15.272Z,83.06
2016-10-09T05:29:15.245Z,83.25
2016-10-09T05:30:15.215Z,83.06
2016-10-09T05:31:15.188Z,83.25
2016-10-09T05:32:15.157Z,83.62
2016-10-09T05:33:15.130Z,83.53
2016-10-09T05:34:15.100Z,83.53
2016-10-09T05:35:15.070Z,83.34
2016-10-09T05:36:15.038Z,83.25
2016-10-09T05:37:15.011Z,83.34
2016-10-09T05:38:14.980Z,83.62
2016-10-09T05:39:14.956Z,83.25
2016-10-09T05:40:14.922Z,83.44
2016-10-09T05:41:14.895Z,83.44
2016-10-09T05:42:14.877Z,83.34
2016-10-09T05:43:14.834Z,83.25
2016-10-09T05:44:14.807Z,84.1
2016-10-09T05:45:14.776Z,83.91
2016-10-09T05:46:14.751Z,84.01
2016-10-09T05:47:14.717Z,83.91
2016-10-09T05:48:14.688Z,83.72
2016-10-09T05:49:14.660Z,83.62
2016-10-09T05:50:14.630Z,83.91
2016-10-09T05:51:14.599Z,84.29
2016-10-09T05:52:14.570Z,83.82
2016-10-09T05:53:14.537Z,84.29
2016-10-09T05:54:14.509Z,84.29
2016-10-09T05:55:14.479Z,84.2
2016-10-09T05:56:14.453Z,84.2
2016-10-09T05:57:14.420Z,83.34
2016-10-09T05:58:14.391Z,83.72
2016-10-09T05:59:14.361Z,83.97
2016-10-09T06:00:14.332Z,84.44
2016-10-09T06:01:14.300Z,84.2
2016-10-09T06:02:14.272Z,84.1
2016-10-09T06:03:14.252Z,84.48
2016-10-09T06:04:14.212Z,83.53
2016-10-09T06:05:14.182Z,83.97
2016-10-09T06:06:14.152Z,84.01
2016-10-09T06:07:14.125Z,84.06
2016-10-09T06:08:14.098Z,84.29
2016-10-09T06:09:14.065Z,84.44
2016-10-09T06:10:14.034Z,84.58
2016-10-09T06:11:14.009Z,83.91
2016-10-09T06:12:13.975Z,83.82
2016-10-09T06:13:13.953Z,83.91
2016-10-09T06:14:13.926Z,84.1
2016-10-09T06:15:13.885Z,84.1
2016-10-09T06:16:13.857Z,84.29
2016-10-09T06:17:13.829Z,84.1
2016-10-09T06:18:13.799Z,84.01
2016-10-09T06:19:13.767Z,84.1
2016-10-09T06:20:13.745Z,84.25
2016-10-09T06:21:13.714Z,84.29
2016-10-09T06:22:13.678Z,84.01
2016-10-09T06:23:13.652Z,84.01
2016-10-09T06:24:13.620Z,84.01
2016-10-09T06:25:13.594Z,84.2
2016-10-09T06:26:13.562Z,84.29
2016-10-09T06:27:13.533Z,84.29
2016-10-09T06:28:13.502Z,84.48
2016-10-09T06:29:13.474Z,84.77
2016-10-09T06:30:13.440Z,84.58
2016-10-09T06:31:13.415Z,84.39
2016-10-09T06:32:13.382Z,84.67
2016-10-09T06:33:13.365Z,84.77
2016-10-09T06:34:13.322Z,85.15
2016-10-09T06:35:13.294Z,85.05
2016-10-09T06:36:13.265Z,84.77
2016-10-09T06:37:13.244Z,84.86
2016-10-09T06:38:13.207Z,84.67
2016-10-09T06:39:13.177Z,84.67
2016-10-09T06:40:13.145Z,84.67
2016-10-09T06:41:13.116Z,84.86
2016-10-09T06:42:13.086Z,85.15
2016-10-09T06:43:13.061Z,85.05
2016-10-09T06:44:13.028Z,85.34
2016-10-09T06:45:12.997Z,84.86
2016-10-09T06:46:12.970Z,84.86
2016-10-09T06:47:12.939Z,84.86
2016-10-09T06:48:12.910Z,84.86
2016-10-09T06:49:12.882Z,84.86
2016-10-09T06:50:12.852Z,84.95
2016-10-09T06:51:12.822Z,84.86
2016-10-09T06:52:12.793Z,84.95
2016-10-09T06:53:12.762Z,84.58
2016-10-09T06:54:12.732Z,84.77
2016-10-09T06:55:12.705Z,84.95
2016-10-09T06:56:12.676Z,84.95
2016-10-09T06:57:12.643Z,84.77
2016-10-09T06:58:12.614Z,84.95
2016-10-09T06:59:12.589Z,85.05
2016-10-09T07:00:12.556Z,84.58
2016-10-09T07:01:12.525Z,84.58
2016-10-09T07:02:12.497Z,84.67
2016-10-09T07:03:12.465Z,84.2
2016-10-09T07:04:12.443Z,84.58
2016-10-09T07:05:12.408Z,84.58
2016-10-09T07:06:12.377Z,84.29
2016-10-09T07:07:12.348Z,84.2
2016-10-09T07:08:12.325Z,84.29
2016-10-09T07:09:12.290Z,84.58
2016-10-09T07:10:12.262Z,84.58
2016-10-09T07:11:12.231Z,84.39
2016-10-09T07:12:12.215Z,84.39
2016-10-09T07:13:12.174Z,84.39
2016-10-09T07:14:12.144Z,84.48
2016-10-09T07:15:12.120Z,84.39
2016-10-09T07:16:12.083Z,84.2
2016-10-09T07:17:12.053Z,84.39
2016-10-09T07:18:12.025Z,84.48
2016-10-09T07:19:11.995Z,84.29
2016-10-09T07:20:11.965Z,84.2
2016-10-09T07:21:11.936Z,84.1
2016-10-09T07:22:11.908Z,84.1
2016-10-09T07:23:11.877Z,84.2
2016-10-09T07:24:11.849Z,84.1
2016-10-09T07:25:11.823Z,84.01
2016-10-09T07:26:11.791Z,83.91
2016-10-09T07:27:11.767Z,84.1
2016-10-09T07:28:11.736Z,84.01
2016-10-09T07:29:11.700Z,84.1
2016-10-09T07:30:11.673Z,84.2
2016-10-09T07:31:11.642Z,83.82
2016-10-09T07:32:11.615Z,84.01
2016-10-09T07:33:11.583Z,84.01
2016-10-09T07:34:11.556Z,84.29
2016-10-09T07:35:11.527Z,84.39
2016-10-09T07:36:11.496Z,84.1
2016-10-09T07:37:11.466Z,84.29
2016-10-09T07:38:11.440Z,83.91
2016-10-09T07:39:11.410Z,84.39
2016-10-09T07:40:11.379Z,84.29
2016-10-09T07:41:11.349Z,84.1
2016-10-09T07:42:11.321Z,84.2
2016-10-09T07:43:11.291Z,84.01
2016-10-09T07:44:11.264Z,84.01
2016-10-09T07:45:11.234Z,84.1
2016-10-09T07:46:11.207Z,84.1
2016-10-09T07:47:11.173Z,83.91
2016-10-09T07:48:11.148Z,84.1
2016-10-09T07:49:11.115Z,84.1
2016-10-09T07:50:11.090Z,84.29
2016-10-09T07:51:11.060Z,84.24
2016-10-09T07:52:11.031Z,84.24
2016-10-09T07:53:10.999Z,84.24
2016-10-09T07:54:10.972Z,84.05
2016-10-09T07:55:10.941Z,83.95
2016-10-09T07:56:10.914Z,84.05
2016-10-09T07:57:10.886Z,84.14
2016-10-09T07:58:10.858Z,83.95
2016-10-09T07:59:10.828Z,84.05
2016-10-09T08:00:10.799Z,84.24
2016-10-09T08:01:10.774Z,84.14
2016-10-09T08:02:10.742Z,84.24
2016-10-09T08:03:10.711Z,84.33
2016-10-09T08:04:10.683Z,84.24
2016-10-09T08:05:10.653Z,83.95
2016-10-09T08:06:10.625Z,83.95
2016-10-09T08:07:10.598Z,84.14
2016-10-09T08:08:10.571Z,84.24
2016-10-09T08:09:10.541Z,84.14
2016-10-09T08:10:10.512Z,84.62
2016-10-09T08:11:10.482Z,83.95
2016-10-09T08:12:10.456Z,83.86
2016-10-09T08:13:10.426Z,84.24
2016-10-09T08:14:10.401Z,84.33
2016-10-09T08:15:10.372Z,83.81
2016-10-09T08:16:10.342Z,83.95
2016-10-09T08:17:10.317Z,83.81
2016-10-09T08:18:10.298Z,83.58
2016-10-09T08:19:10.257Z,83.9
2016-10-09T08:20:10.225Z,83.9
2016-10-09T08:21:10.201Z,84.09
2016-10-09T08:22:10.173Z,84
2016-10-09T08:23:10.148Z,83.62
2016-10-09T08:24:10.114Z,83.52
2016-10-09T08:25:10.085Z,83.62
2016-10-09T08:26:10.058Z,83.14
2016-10-09T08:27:10.029Z,83.14
2016-10-09T08:28:10.001Z,83.33
2016-10-09T08:29:09.972Z,83.04
2016-10-09T08:30:09.945Z,82.86
2016-10-09T08:31:09.917Z,83.04
2016-10-09T08:32:09.887Z,83.14
2016-10-09T08:33:09.859Z,82.95
2016-10-09T08:34:09.830Z,82.86
2016-10-09T08:35:09.805Z,82.38
2016-10-09T08:36:09.776Z,82.61
2016-10-09T08:37:09.748Z,82.28
2016-10-09T08:38:09.719Z,82.57
2016-10-09T08:39:09.691Z,82.23
2016-10-09T08:40:09.664Z,82.04
2016-10-09T08:41:09.635Z,81.85
2016-10-09T08:42:09.608Z,82.04
2016-10-09T08:43:09.581Z,81.66
2016-10-09T08:44:09.554Z,81.56
2016-10-09T08:45:09.527Z,81.18
2016-10-09T08:46:09.497Z,80.99
2016-10-09T08:47:09.471Z,81.47
2016-10-09T08:48:09.441Z,80.9
2016-10-09T08:49:09.414Z,81.09
2016-10-09T08:50:09.383Z,80.71
2016-10-09T08:51:09.360Z,81.28
2016-10-09T08:52:09.338Z,80.52
2016-10-09T08:53:09.302Z,80.13
2016-10-09T08:54:09.275Z,80.42
2016-10-09T08:55:09.248Z,80.42
2016-10-09T08:56:09.218Z,79.85
2016-10-09T08:57:09.192Z,79.94
2016-10-09T08:58:09.166Z,79.28
2016-10-09T08:59:09.140Z,79.32
2016-10-09T09:00:09.113Z,79.32
2016-10-09T09:01:09.087Z,78.85
2016-10-09T09:02:09.062Z,78.65
2016-10-09T09:03:09.028Z,78.56
2016-10-09T09:04:09.000Z,78.46
2016-10-09T09:05:08.974Z,77.89
2016-10-09T09:06:08.945Z,77.61
2016-10-09T09:07:08.920Z,77.13
2016-10-09T09:08:08.890Z,76.94
2016-10-09T09:09:08.864Z,76.27
2016-10-09T09:10:08.838Z,76.65
2016-10-09T09:11:08.811Z,75.99
2016-10-09T09:12:08.784Z,75.7
2016-10-09T09:13:08.763Z,75.89
2016-10-09T09:14:08.731Z,75.89
2016-10-09T09:15:08.700Z,75.32
2016-10-09T09:16:08.681Z,75.26
2016-10-09T09:17:08.650Z,74.84
2016-10-09T09:18:08.623Z,74.79
2016-10-09T09:19:08.592Z,74.69
2016-10-09T09:20:08.571Z,74.21
2016-10-09T09:21:08.553Z,74.02
2016-10-09T09:22:08.515Z,74.21
2016-10-09T09:23:08.488Z,73.65
2016-10-09T09:24:08.460Z,73.45
2016-10-09T09:25:08.433Z,73.17
2016-10-09T09:26:08.412Z,72.88
2016-10-09T09:27:08.382Z,72.6
2016-10-09T09:28:08.354Z,72.97
2016-10-09T09:29:08.328Z,72.6
2016-10-09T09:30:08.301Z,72.12
2016-10-09T09:31:08.276Z,72.06
2016-10-09T09:32:08.249Z,72.25
2016-10-09T09:33:08.222Z,71.3
2016-10-09T09:34:08.195Z,71.11
2016-10-09T09:35:08.168Z,70.82
2016-10-09T09:36:08.140Z,69.96
2016-10-09T09:37:08.117Z,69.96
2016-10-09T09:38:08.090Z,69.58
2016-10-09T09:39:08.064Z,69.87
2016-10-09T09:40:08.036Z,69.48
2016-10-09T09:41:08.012Z,68.91
2016-10-09T09:42:07.987Z,68.24
2016-10-09T09:43:07.960Z,68.53
2016-10-09T09:44:07.934Z,68.15
2016-10-09T09:45:07.908Z,68.05
2016-10-09T09:46:07.884Z,67.99
2016-10-09T09:47:07.857Z,67.23
2016-10-09T09:48:07.834Z,67.33
2016-10-09T09:49:07.809Z,66.85
2016-10-09T09:50:07.781Z,66.94
2016-10-09T09:51:07.759Z,66.85
2016-10-09T09:52:07.733Z,66.28
2016-10-09T09:53:07.707Z,65.8
2016-10-09T09:54:07.683Z,65.61
2016-10-09T09:55:07.657Z,65.52
2016-10-09T09:56:07.632Z,65.33
2016-10-09T09:57:07.611Z,65.13
2016-10-09T09:58:07.581Z,64.94
2016-10-09T09:59:07.559Z,64.09
2016-10-09T10:00:07.538Z,64.65
2016-10-09T10:01:07.510Z,64.09
2016-10-09T10:02:07.485Z,63.6
2016-10-09T10:03:07.460Z,63.89
2016-10-09T10:04:07.436Z,63.8
2016-10-09T10:05:07.415Z,63.6
2016-10-09T10:06:07.385Z,64.18
2016-10-09T10:07:07.358Z,63.7
2016-10-09T10:08:07.337Z,63.51
2016-10-09T10:09:07.309Z,63.23
2016-10-09T10:10:07.285Z,63.35
2016-10-09T10:11:07.262Z,63.73
2016-10-09T10:12:07.237Z,63.16
2016-10-09T10:13:07.212Z,63.35
2016-10-09T10:14:07.185Z,63.07
2016-10-09T10:15:07.159Z,62.88
2016-10-09T10:16:07.138Z,62.4
2016-10-09T10:17:07.111Z,62.3
2016-10-09T10:18:07.087Z,62.11
2016-10-09T10:19:07.061Z,62.02
2016-10-09T10:20:07.036Z,61.73
2016-10-09T10:21:07.011Z,61.35
2016-10-09T10:22:06.995Z,61.63
2016-10-09T10:23:06.962Z,60.87
2016-10-09T10:24:06.940Z,60.97
2016-10-09T10:25:06.913Z,60.58
2016-10-09T10:26:06.890Z,60.52
2016-10-09T10:27:06.872Z,60.33
2016-10-09T10:28:06.841Z,60.24
2016-10-09T10:29:06.824Z,59.5
2016-10-09T10:30:06.795Z,58.64
2016-10-09T10:31:06.774Z,57.78
2016-10-09T10:32:06.750Z,57.68
2016-10-09T10:33:06.735Z,57.78
2016-10-09T10:34:06.704Z,57.31
2016-10-09T10:35:06.682Z,56.92
2016-10-09T10:36:06.656Z,56.35
2016-10-09T10:37:06.641Z,56.57
2016-10-09T10:38:06.612Z,55.99
2016-10-09T10:39:06.604Z,55.61
2016-10-09T10:40:06.564Z,55.32
2016-10-09T10:41:06.544Z,55.9
2016-10-09T10:42:06.523Z,55.52
2016-10-09T10:43:06.497Z,55.61
2016-10-09T10:44:06.473Z,55.71
2016-10-09T10:45:06.451Z,55.8
2016-10-09T10:46:06.426Z,55.61
2016-10-09T10:47:06.403Z,55.49
2016-10-09T10:48:06.380Z,55.4
2016-10-09T10:49:06.355Z,55.3
2016-10-09T10:50:06.333Z,55.58
2016-10-09T10:51:06.311Z,55.77
2016-10-09T10:52:06.288Z,55.96
2016-10-09T10:53:06.261Z,55.87
2016-10-09T10:54:06.237Z,55.94
2016-10-09T10:55:06.220Z,55.84
2016-10-09T10:56:06.189Z,55.75
2016-10-09T10:57:06.168Z,55.75
2016-10-09T10:58:06.143Z,55.94
2016-10-09T10:59:06.117Z,56.04
2016-10-09T11:00:06.093Z,55.94
2016-10-09T11:01:06.075Z,55.94
2016-10-09T11:02:06.044Z,55.94
2016-10-09T11:03:06.022Z,55.46
2016-10-09T11:04:05.998Z,55.75
2016-10-09T11:05:05.973Z,55.36
2016-10-09T11:06:05.946Z,55.65
2016-10-09T11:07:05.926Z,55.36
2016-10-09T11:08:05.899Z,55.46
2016-10-09T11:09:05.878Z,55.46
2016-10-09T11:10:05.855Z,55.49
2016-10-09T11:11:05.833Z,54.82
2016-10-09T11:12:05.804Z,54.72
2016-10-09T11:13:05.784Z,54.91
2016-10-09T11:14:05.758Z,53.89
2016-10-09T11:15:05.743Z,53.8
2016-10-09T11:16:05.714Z,53.32
2016-10-09T11:17:05.689Z,52.75
2016-10-09T11:18:05.670Z,52.2
2016-10-09T11:19:05.644Z,52.2
2016-10-09T11:20:05.623Z,51.15
2016-10-09T11:21:05.600Z,50.95
2016-10-09T11:22:05.579Z,50.57
2016-10-09T11:23:05.556Z,50.6
2016-10-09T11:24:05.535Z,50.31
2016-10-09T11:25:05.512Z,49.93
2016-10-09T11:26:05.491Z,49.84
2016-10-09T11:27:05.477Z,49.93
2016-10-09T11:28:05.748Z,49.26
2016-10-09T11:29:05.423Z,49.07
2016-10-09T11:30:05.404Z,48.97
2016-10-09T11:31:05.380Z,48.78
2016-10-09T11:32:05.361Z,49.26
2016-10-09T11:33:05.337Z,49.16
2016-10-09T11:34:05.315Z,48.88
2016-10-09T11:35:05.293Z,48.97
2016-10-09T11:36:05.270Z,48.88
2016-10-09T11:37:05.249Z,48.59
2016-10-09T11:38:05.226Z,48.85
2016-10-09T11:39:05.203Z,48.75
2016-10-09T11:40:05.182Z,48.68
2016-10-09T11:41:05.154Z,49.14
2016-10-09T11:42:05.134Z,48.85
2016-10-09T11:43:05.119Z,48.75
2016-10-09T11:44:05.088Z,49.14
2016-10-09T11:45:05.071Z,48.95
2016-10-09T11:46:05.044Z,49.14
2016-10-09T11:47:05.033Z,48.95
2016-10-09T11:48:04.997Z,49.14
2016-10-09T11:49:04.978Z,48.95
2016-10-09T11:50:04.949Z,49.33
2016-10-09T11:51:04.926Z,49.02
2016-10-09T11:52:04.936Z,49.3
2016-10-09T11:53:04.883Z,49.4
2016-10-09T11:54:04.857Z,49.3
2016-10-09T11:55:04.850Z,49.02
2016-10-09T11:56:04.810Z,49.23
2016-10-09T11:57:04.786Z,49.14
2016-10-09T11:58:04.763Z,48.85
2016-10-09T11:59:04.739Z,48.66
2016-10-09T12:00:04.716Z,48.75
2016-10-09T12:01:04.695Z,48.57
2016-10-09T12:02:04.671Z,47.99
2016-10-09T12:03:04.648Z,47.8
2016-10-09T12:04:04.630Z,47.71
2016-10-09T12:05:04.601Z,47.03
2016-10-09T12:06:04.577Z,46.75
2016-10-09T12:07:04.564Z,47.06
2016-10-09T12:08:04.534Z,46.3
2016-10-09T12:09:04.514Z,46.39
2016-10-09T12:10:04.490Z,46.2
2016-10-09T12:11:04.469Z,46.01
2016-10-09T12:12:04.445Z,45.43
2016-10-09T12:13:04.427Z,44.95
2016-10-09T12:14:04.402Z,44.67
2016-10-09T12:15:04.382Z,44.86
2016-10-09T12:16:04.365Z,44.48
2016-10-09T12:17:04.339Z,44.48
2016-10-09T12:18:04.319Z,44.48
2016-10-09T12:19:04.296Z,44.48
2016-10-09T12:20:04.276Z,44
2016-10-09T12:21:04.253Z,44.29
2016-10-09T12:22:04.235Z,44.19
2016-10-09T12:23:04.211Z,44.38
2016-10-09T12:24:04.188Z,43.8
2016-10-09T12:25:04.167Z,44
2016-10-09T12:26:04.146Z,43.9
2016-10-09T12:27:04.125Z,43.63
2016-10-09T12:28:04.103Z,43.63
2016-10-09T12:29:04.081Z,43.54
2016-10-09T12:30:04.067Z,43.92
2016-10-09T12:31:04.045Z,43.92
2016-10-09T12:32:04.015Z,43.9
2016-10-09T12:33:03.996Z,43.92
2016-10-09T12:34:03.973Z,43.9
2016-10-09T12:35:03.950Z,44.19
2016-10-09T12:36:03.929Z,44.19
2016-10-09T12:37:03.913Z,44.19
2016-10-09T12:38:03.882Z,44.57
2016-10-09T12:39:03.862Z,44.76
2016-10-09T12:40:03.840Z,44.67
2016-10-09T12:41:03.819Z,45.05
2016-10-09T12:42:03.795Z,44.84
2016-10-09T12:43:03.781Z,44.95
2016-10-09T12:44:03.751Z,45.03
2016-10-09T12:45:03.729Z,45.41
2016-10-09T12:46:03.704Z,45.12
2016-10-09T12:47:03.683Z,45.31
2016-10-09T12:48:03.661Z,45.41
2016-10-09T12:49:03.638Z,45.31
2016-10-09T12:50:03.616Z,45.51
2016-10-09T12:51:03.598Z,45.41
2016-10-09T12:52:03.571Z,45.31
2016-10-09T12:53:03.548Z,45.51
2016-10-09T12:54:03.569Z,45.41
2016-10-09T12:55:03.503Z,45.22